sensor_id;sensor_type;location;lat;lon;timestamp;temperature;humidity
68867;SHT30;56451;44.804;20.476;2022-08-20T00:00:49;29.99;39.82
68867;SHT30;56451;44.804;20.476;2022-08-20T00:05:49;29.96;39.77
68867;SHT30;56451;44.804;20.476;2022-08-20T00:08:17;29.90;40.16
68867;SHT30;56451;44.804;20.476;2022-08-20T00:10:44;29.89;40.41
68867;SHT30;56451;44.804;20.476;2022-08-20T00:13:14;29.90;40.66
68867;SHT30;56451;44.804;20.476;2022-08-20T00:15:40;29.89;40.82
68867;SHT30;56451;44.804;20.476;2022-08-20T00:18:07;29.92;41.15
68867;SHT30;56451;44.804;20.476;2022-08-20T00:20:37;29.92;41.39
68867;SHT30;56451;44.804;20.476;2022-08-20T00:23:04;29.86;41.63
68867;SHT30;56451;44.804;20.476;2022-08-20T00:25:30;29.84;41.99
68867;SHT30;56451;44.804;20.476;2022-08-20T00:27:57;29.79;42.06
68867;SHT30;56451;44.804;20.476;2022-08-20T00:30:24;29.78;41.88
68867;SHT30;56451;44.804;20.476;2022-08-20T00:32:56;29.75;41.82
68867;SHT30;56451;44.804;20.476;2022-08-20T00:35:26;29.74;41.77
68867;SHT30;56451;44.804;20.476;2022-08-20T00:37:53;29.71;41.64
68867;SHT30;56451;44.804;20.476;2022-08-20T00:40:22;29.69;41.61
68867;SHT30;56451;44.804;20.476;2022-08-20T00:42:55;29.68;41.46
68867;SHT30;56451;44.804;20.476;2022-08-20T00:45:27;29.64;41.36
68867;SHT30;56451;44.804;20.476;2022-08-20T00:47:53;29.61;41.40
68867;SHT30;56451;44.804;20.476;2022-08-20T00:50:23;29.58;41.34
68867;SHT30;56451;44.804;20.476;2022-08-20T00:52:51;29.55;41.11
68867;SHT30;56451;44.804;20.476;2022-08-20T00:55:20;29.53;41.21
68867;SHT30;56451;44.804;20.476;2022-08-20T00:57:50;29.48;41.42
68867;SHT30;56451;44.804;20.476;2022-08-20T01:00:30;29.48;41.15
68867;SHT30;56451;44.804;20.476;2022-08-20T01:02:57;29.48;41.19
68867;SHT30;56451;44.804;20.476;2022-08-20T01:05:26;29.47;41.26
68867;SHT30;56451;44.804;20.476;2022-08-20T01:07:53;29.43;41.35
68867;SHT30;56451;44.804;20.476;2022-08-20T01:10:27;29.46;41.27
68867;SHT30;56451;44.804;20.476;2022-08-20T01:12:55;29.40;41.41
68867;SHT30;56451;44.804;20.476;2022-08-20T01:15:23;29.38;41.32
68867;SHT30;56451;44.804;20.476;2022-08-20T01:17:54;29.37;41.25
68867;SHT30;56451;44.804;20.476;2022-08-20T01:20:45;29.37;41.29
68867;SHT30;56451;44.804;20.476;2022-08-20T01:26:00;29.34;41.22
68867;SHT30;56451;44.804;20.476;2022-08-20T01:28:40;29.33;41.23
68867;SHT30;56451;44.804;20.476;2022-08-20T01:31:15;29.30;41.27
68867;SHT30;56451;44.804;20.476;2022-08-20T01:33:41;29.31;41.20
68867;SHT30;56451;44.804;20.476;2022-08-20T01:36:08;29.33;40.93
68867;SHT30;56451;44.804;20.476;2022-08-20T01:38:36;29.29;41.07
68867;SHT30;56451;44.804;20.476;2022-08-20T01:43:47;29.29;41.04
68867;SHT30;56451;44.804;20.476;2022-08-20T01:46:14;29.26;40.97
68867;SHT30;56451;44.804;20.476;2022-08-20T01:48:41;29.23;41.19
68867;SHT30;56451;44.804;20.476;2022-08-20T01:51:16;29.26;41.14
68867;SHT30;56451;44.804;20.476;2022-08-20T01:53:46;29.24;41.18
68867;SHT30;56451;44.804;20.476;2022-08-20T01:56:18;29.23;40.99
68867;SHT30;56451;44.804;20.476;2022-08-20T01:58:48;29.26;40.97
68867;SHT30;56451;44.804;20.476;2022-08-20T02:03:46;29.20;41.17
68867;SHT30;56451;44.804;20.476;2022-08-20T02:06:12;29.17;41.20
68867;SHT30;56451;44.804;20.476;2022-08-20T02:08:37;29.16;41.20
68867;SHT30;56451;44.804;20.476;2022-08-20T02:11:03;29.14;41.20
68867;SHT30;56451;44.804;20.476;2022-08-20T02:13:29;29.10;41.32
68867;SHT30;56451;44.804;20.476;2022-08-20T02:15:57;29.11;41.42
68867;SHT30;56451;44.804;20.476;2022-08-20T02:18:22;29.10;41.40
68867;SHT30;56451;44.804;20.476;2022-08-20T02:20:50;29.14;41.33
68867;SHT30;56451;44.804;20.476;2022-08-20T02:23:17;29.19;41.13
68867;SHT30;56451;44.804;20.476;2022-08-20T02:25:45;29.19;41.34
68867;SHT30;56451;44.804;20.476;2022-08-20T02:28:14;29.20;41.91
68867;SHT30;56451;44.804;20.476;2022-08-20T02:30:44;29.20;42.60
68867;SHT30;56451;44.804;20.476;2022-08-20T02:33:12;29.24;42.83
68867;SHT30;56451;44.804;20.476;2022-08-20T02:35:40;29.20;43.39
68867;SHT30;56451;44.804;20.476;2022-08-20T02:38:08;29.17;43.60
68867;SHT30;56451;44.804;20.476;2022-08-20T02:40:35;29.14;43.94
68867;SHT30;56451;44.804;20.476;2022-08-20T02:43:03;29.04;44.23
68867;SHT30;56451;44.804;20.476;2022-08-20T02:45:31;29.02;44.76
68867;SHT30;56451;44.804;20.476;2022-08-20T02:48:00;28.95;45.38
68867;SHT30;56451;44.804;20.476;2022-08-20T02:50:26;28.89;46.44
68867;SHT30;56451;44.804;20.476;2022-08-20T02:52:52;28.73;46.75
68867;SHT30;56451;44.804;20.476;2022-08-20T02:55:20;28.66;47.11
68867;SHT30;56451;44.804;20.476;2022-08-20T02:57:46;28.53;47.54
68867;SHT30;56451;44.804;20.476;2022-08-20T03:00:18;28.42;47.87
68867;SHT30;56451;44.804;20.476;2022-08-20T03:02:45;28.32;48.19
68867;SHT30;56451;44.804;20.476;2022-08-20T03:05:12;28.22;48.76
68867;SHT30;56451;44.804;20.476;2022-08-20T03:07:47;28.17;49.05
68867;SHT30;56451;44.804;20.476;2022-08-20T03:10:14;28.05;49.35
68867;SHT30;56451;44.804;20.476;2022-08-20T03:12:40;27.97;49.67
68867;SHT30;56451;44.804;20.476;2022-08-20T03:15:08;27.90;49.82
68867;SHT30;56451;44.804;20.476;2022-08-20T03:17:35;27.83;50.12
68867;SHT30;56451;44.804;20.476;2022-08-20T03:20:04;27.73;50.31
68867;SHT30;56451;44.804;20.476;2022-08-20T03:22:31;27.63;50.50
68867;SHT30;56451;44.804;20.476;2022-08-20T03:24:56;27.52;50.88
68867;SHT30;56451;44.804;20.476;2022-08-20T03:27:22;27.42;51.17
68867;SHT30;56451;44.804;20.476;2022-08-20T03:29:48;27.36;51.35
68867;SHT30;56451;44.804;20.476;2022-08-20T03:32:15;27.29;51.41
68867;SHT30;56451;44.804;20.476;2022-08-20T03:34:41;27.28;51.29
68867;SHT30;56451;44.804;20.476;2022-08-20T03:37:06;27.26;51.16
68867;SHT30;56451;44.804;20.476;2022-08-20T03:39:32;27.26;51.25
68867;SHT30;56451;44.804;20.476;2022-08-20T03:41:58;27.19;51.44
68867;SHT30;56451;44.804;20.476;2022-08-20T03:44:24;27.19;51.57
68867;SHT30;56451;44.804;20.476;2022-08-20T03:46:51;27.16;51.70
68867;SHT30;56451;44.804;20.476;2022-08-20T03:49:17;27.12;51.90
68867;SHT30;56451;44.804;20.476;2022-08-20T03:51:43;27.12;52.01
68867;SHT30;56451;44.804;20.476;2022-08-20T03:54:09;27.14;51.76
68867;SHT30;56451;44.804;20.476;2022-08-20T03:56:34;27.16;51.34
68867;SHT30;56451;44.804;20.476;2022-08-20T03:59:00;27.15;51.03
68867;SHT30;56451;44.804;20.476;2022-08-20T04:01:26;27.21;50.89
68867;SHT30;56451;44.804;20.476;2022-08-20T04:03:52;27.21;50.50
68867;SHT30;56451;44.804;20.476;2022-08-20T04:06:18;27.19;50.58
68867;SHT30;56451;44.804;20.476;2022-08-20T04:08:44;27.22;50.66
68867;SHT30;56451;44.804;20.476;2022-08-20T04:11:10;27.28;50.21
68867;SHT30;56451;44.804;20.476;2022-08-20T04:13:36;27.34;50.95
68867;SHT30;56451;44.804;20.476;2022-08-20T04:16:03;27.39;51.48
68867;SHT30;56451;44.804;20.476;2022-08-20T04:18:34;27.43;52.00
68867;SHT30;56451;44.804;20.476;2022-08-20T04:21:02;27.38;56.33
68867;SHT30;56451;44.804;20.476;2022-08-20T04:23:28;27.31;56.90
68867;SHT30;56451;44.804;20.476;2022-08-20T04:25:56;26.98;58.49
68867;SHT30;56451;44.804;20.476;2022-08-20T04:28:23;26.63;61.08
68867;SHT30;56451;44.804;20.476;2022-08-20T04:30:57;26.39;61.34
68867;SHT30;56451;44.804;20.476;2022-08-20T04:33:24;26.16;62.30
68867;SHT30;56451;44.804;20.476;2022-08-20T04:35:52;26.03;63.21
68867;SHT30;56451;44.804;20.476;2022-08-20T04:38:20;25.72;61.63
68867;SHT30;56451;44.804;20.476;2022-08-20T04:40:46;25.45;61.43
68867;SHT30;56451;44.804;20.476;2022-08-20T04:43:28;25.09;61.25
68867;SHT30;56451;44.804;20.476;2022-08-20T04:45:56;24.79;62.14
68867;SHT30;56451;44.804;20.476;2022-08-20T04:48:24;24.64;62.80
68867;SHT30;56451;44.804;20.476;2022-08-20T04:50:52;24.68;64.56
68867;SHT30;56451;44.804;20.476;2022-08-20T04:53:21;24.69;65.72
68867;SHT30;56451;44.804;20.476;2022-08-20T04:55:49;24.62;65.48
68867;SHT30;56451;44.804;20.476;2022-08-20T04:58:18;24.49;66.46
68867;SHT30;56451;44.804;20.476;2022-08-20T05:00:51;24.38;67.48
68867;SHT30;56451;44.804;20.476;2022-08-20T05:03:17;24.29;68.08
68867;SHT30;56451;44.804;20.476;2022-08-20T05:05:44;24.31;67.65
68867;SHT30;56451;44.804;20.476;2022-08-20T05:08:11;24.29;68.08
68867;SHT30;56451;44.804;20.476;2022-08-20T05:10:39;24.34;69.35
68867;SHT30;56451;44.804;20.476;2022-08-20T05:13:06;24.44;69.02
68867;SHT30;56451;44.804;20.476;2022-08-20T05:15:33;24.48;69.16
68867;SHT30;56451;44.804;20.476;2022-08-20T05:18:02;24.57;68.79
68867;SHT30;56451;44.804;20.476;2022-08-20T05:20:37;24.62;67.81
68867;SHT30;56451;44.804;20.476;2022-08-20T05:23:06;24.68;66.39
68867;SHT30;56451;44.804;20.476;2022-08-20T05:25:33;24.62;66.27
68867;SHT30;56451;44.804;20.476;2022-08-20T05:28:12;24.58;65.80
68867;SHT30;56451;44.804;20.476;2022-08-20T05:30:40;24.57;66.91
68867;SHT30;56451;44.804;20.476;2022-08-20T05:33:07;24.69;66.80
68867;SHT30;56451;44.804;20.476;2022-08-20T05:35:36;24.79;67.67
68867;SHT30;56451;44.804;20.476;2022-08-20T05:38:10;24.89;66.52
68867;SHT30;56451;44.804;20.476;2022-08-20T05:40:37;25.02;65.96
68867;SHT30;56451;44.804;20.476;2022-08-20T05:43:05;25.16;66.21
68867;SHT30;56451;44.804;20.476;2022-08-20T05:45:31;25.26;66.29
68867;SHT30;56451;44.804;20.476;2022-08-20T05:48:03;25.34;65.47
68867;SHT30;56451;44.804;20.476;2022-08-20T05:50:29;25.44;65.19
68867;SHT30;56451;44.804;20.476;2022-08-20T05:52:54;25.57;64.66
68867;SHT30;56451;44.804;20.476;2022-08-20T05:55:20;25.64;63.85
68867;SHT30;56451;44.804;20.476;2022-08-20T05:57:48;25.65;63.42
68867;SHT30;56451;44.804;20.476;2022-08-20T06:00:15;25.68;63.64
68867;SHT30;56451;44.804;20.476;2022-08-20T06:02:41;25.74;63.78
68867;SHT30;56451;44.804;20.476;2022-08-20T06:05:25;25.80;64.23
68867;SHT30;56451;44.804;20.476;2022-08-20T06:07:52;25.80;63.80
68867;SHT30;56451;44.804;20.476;2022-08-20T06:10:18;25.84;63.26
68867;SHT30;56451;44.804;20.476;2022-08-20T06:12:44;25.78;63.26
68867;SHT30;56451;44.804;20.476;2022-08-20T06:15:11;25.75;62.49
68867;SHT30;56451;44.804;20.476;2022-08-20T06:17:38;25.68;64.28
68867;SHT30;56451;44.804;20.476;2022-08-20T06:20:06;25.65;64.46
68867;SHT30;56451;44.804;20.476;2022-08-20T06:22:33;25.65;64.44
68867;SHT30;56451;44.804;20.476;2022-08-20T06:24:59;25.67;64.51
68867;SHT30;56451;44.804;20.476;2022-08-20T06:27:26;25.67;64.70
68867;SHT30;56451;44.804;20.476;2022-08-20T06:29:52;25.71;64.53
68867;SHT30;56451;44.804;20.476;2022-08-20T06:32:19;25.70;64.20
68867;SHT30;56451;44.804;20.476;2022-08-20T06:34:46;25.71;65.16
68867;SHT30;56451;44.804;20.476;2022-08-20T06:37:14;25.74;65.37
68867;SHT30;56451;44.804;20.476;2022-08-20T06:39:41;25.78;65.05
68867;SHT30;56451;44.804;20.476;2022-08-20T06:42:07;25.84;64.79
68867;SHT30;56451;44.804;20.476;2022-08-20T06:44:33;25.84;64.90
68867;SHT30;56451;44.804;20.476;2022-08-20T06:47:00;25.89;64.73
68867;SHT30;56451;44.804;20.476;2022-08-20T06:49:28;25.92;64.29
68867;SHT30;56451;44.804;20.476;2022-08-20T06:51:55;25.91;64.81
68867;SHT30;56451;44.804;20.476;2022-08-20T06:54:21;25.93;65.46
68867;SHT30;56451;44.804;20.476;2022-08-20T06:56:47;25.96;65.36
68867;SHT30;56451;44.804;20.476;2022-08-20T06:59:13;25.96;65.48
68867;SHT30;56451;44.804;20.476;2022-08-20T07:01:39;25.80;66.13
68867;SHT30;56451;44.804;20.476;2022-08-20T07:04:05;25.53;67.54
68867;SHT30;56451;44.804;20.476;2022-08-20T07:06:33;25.26;68.38
68867;SHT30;56451;44.804;20.476;2022-08-20T07:08:58;24.99;69.25
68867;SHT30;56451;44.804;20.476;2022-08-20T07:11:25;24.78;70.53
68867;SHT30;56451;44.804;20.476;2022-08-20T07:13:51;24.62;71.77
68867;SHT30;56451;44.804;20.476;2022-08-20T07:16:17;24.48;72.88
68867;SHT30;56451;44.804;20.476;2022-08-20T07:18:43;24.29;73.20
68867;SHT30;56451;44.804;20.476;2022-08-20T07:21:09;24.13;73.33
68867;SHT30;56451;44.804;20.476;2022-08-20T07:23:36;24.01;73.72
68867;SHT30;56451;44.804;20.476;2022-08-20T07:26:02;23.94;73.70
68867;SHT30;56451;44.804;20.476;2022-08-20T07:28:29;23.83;74.02
68867;SHT30;56451;44.804;20.476;2022-08-20T07:30:56;23.69;75.09
68867;SHT30;56451;44.804;20.476;2022-08-20T07:33:42;23.51;75.97
68867;SHT30;56451;44.804;20.476;2022-08-20T07:36:09;23.48;76.27
68867;SHT30;56451;44.804;20.476;2022-08-20T07:38:36;23.51;76.31
68867;SHT30;56451;44.804;20.476;2022-08-20T07:41:08;23.51;76.20
68867;SHT30;56451;44.804;20.476;2022-08-20T07:43:34;23.51;75.88
68867;SHT30;56451;44.804;20.476;2022-08-20T07:46:02;23.42;76.13
68867;SHT30;56451;44.804;20.476;2022-08-20T07:48:34;23.41;76.00
68867;SHT30;56451;44.804;20.476;2022-08-20T07:51:02;23.32;76.66
68867;SHT30;56451;44.804;20.476;2022-08-20T07:53:30;23.29;76.49
68867;SHT30;56451;44.804;20.476;2022-08-20T07:55:57;23.32;76.50
68867;SHT30;56451;44.804;20.476;2022-08-20T07:58:24;23.32;76.81
68867;SHT30;56451;44.804;20.476;2022-08-20T08:00:51;23.32;76.72
68867;SHT30;56451;44.804;20.476;2022-08-20T08:03:17;23.37;76.99
68867;SHT30;56451;44.804;20.476;2022-08-20T08:05:45;23.38;76.83
68867;SHT30;56451;44.804;20.476;2022-08-20T08:08:16;23.38;77.31
68867;SHT30;56451;44.804;20.476;2022-08-20T08:10:45;23.39;75.69
68867;SHT30;56451;44.804;20.476;2022-08-20T08:13:25;23.39;74.77
68867;SHT30;56451;44.804;20.476;2022-08-20T08:15:53;23.51;74.80
68867;SHT30;56451;44.804;20.476;2022-08-20T08:18:27;23.69;75.16
68867;SHT30;56451;44.804;20.476;2022-08-20T08:20:54;23.79;74.88
68867;SHT30;56451;44.804;20.476;2022-08-20T08:23:22;23.86;72.79
68867;SHT30;56451;44.804;20.476;2022-08-20T08:25:49;24.01;73.37
68867;SHT30;56451;44.804;20.476;2022-08-20T08:28:17;24.13;73.37
68867;SHT30;56451;44.804;20.476;2022-08-20T08:30:44;24.21;71.85
68867;SHT30;56451;44.804;20.476;2022-08-20T08:33:22;24.34;72.00
68867;SHT30;56451;44.804;20.476;2022-08-20T08:36:01;24.39;71.31
68867;SHT30;56451;44.804;20.476;2022-08-20T08:38:29;24.45;71.93
68867;SHT30;56451;44.804;20.476;2022-08-20T08:40:57;24.51;71.51
68867;SHT30;56451;44.804;20.476;2022-08-20T08:43:25;24.58;71.62
68867;SHT30;56451;44.804;20.476;2022-08-20T08:45:57;24.62;71.45
68867;SHT30;56451;44.804;20.476;2022-08-20T08:48:33;24.68;70.95
68867;SHT30;56451;44.804;20.476;2022-08-20T08:51:01;24.72;70.58
68867;SHT30;56451;44.804;20.476;2022-08-20T08:53:36;24.73;69.97
68867;SHT30;56451;44.804;20.476;2022-08-20T08:56:04;24.76;70.10
68867;SHT30;56451;44.804;20.476;2022-08-20T08:58:31;24.80;70.11
68867;SHT30;56451;44.804;20.476;2022-08-20T09:01:07;24.80;69.65
68867;SHT30;56451;44.804;20.476;2022-08-20T09:03:36;24.89;70.08
68867;SHT30;56451;44.804;20.476;2022-08-20T09:06:03;24.86;70.29
68867;SHT30;56451;44.804;20.476;2022-08-20T09:08:32;24.82;71.17
68867;SHT30;56451;44.804;20.476;2022-08-20T09:11:02;24.79;70.69
68867;SHT30;56451;44.804;20.476;2022-08-20T09:13:29;24.80;70.59
68867;SHT30;56451;44.804;20.476;2022-08-20T09:15:55;24.76;69.81
68867;SHT30;56451;44.804;20.476;2022-08-20T09:18:21;24.69;71.16
68867;SHT30;56451;44.804;20.476;2022-08-20T09:20:46;24.64;71.12
68867;SHT30;56451;44.804;20.476;2022-08-20T09:23:12;24.62;70.69
68867;SHT30;56451;44.804;20.476;2022-08-20T09:25:38;24.59;71.15
68867;SHT30;56451;44.804;20.476;2022-08-20T09:28:04;24.57;71.65
68867;SHT30;56451;44.804;20.476;2022-08-20T09:30:30;24.51;72.07
68867;SHT30;56451;44.804;20.476;2022-08-20T09:32:58;24.39;72.66
68867;SHT30;56451;44.804;20.476;2022-08-20T09:35:25;24.34;71.86
68867;SHT30;56451;44.804;20.476;2022-08-20T09:37:51;24.31;72.95
68867;SHT30;56451;44.804;20.476;2022-08-20T09:40:18;24.29;73.32
68867;SHT30;56451;44.804;20.476;2022-08-20T09:42:44;24.34;72.99
68867;SHT30;56451;44.804;20.476;2022-08-20T09:45:11;24.37;72.78
68867;SHT30;56451;44.804;20.476;2022-08-20T09:47:38;24.45;72.50
68867;SHT30;56451;44.804;20.476;2022-08-20T09:50:05;24.51;72.45
68867;SHT30;56451;44.804;20.476;2022-08-20T09:52:34;24.52;72.57
68867;SHT30;56451;44.804;20.476;2022-08-20T09:55:04;24.49;72.40
68867;SHT30;56451;44.804;20.476;2022-08-20T09:57:33;24.47;72.68
68867;SHT30;56451;44.804;20.476;2022-08-20T10:00:03;24.45;72.91
68867;SHT30;56451;44.804;20.476;2022-08-20T10:02:38;24.49;73.23
68867;SHT30;56451;44.804;20.476;2022-08-20T10:05:05;24.51;73.63
68867;SHT30;56451;44.804;20.476;2022-08-20T10:07:31;24.52;73.80
68867;SHT30;56451;44.804;20.476;2022-08-20T10:09:59;24.61;73.71
68867;SHT30;56451;44.804;20.476;2022-08-20T10:12:25;24.59;73.24
68867;SHT30;56451;44.804;20.476;2022-08-20T10:14:51;24.61;73.74
68867;SHT30;56451;44.804;20.476;2022-08-20T10:17:17;24.66;73.95
68867;SHT30;56451;44.804;20.476;2022-08-20T10:19:43;24.71;73.55
68867;SHT30;56451;44.804;20.476;2022-08-20T10:22:09;24.71;73.39
68867;SHT30;56451;44.804;20.476;2022-08-20T10:24:35;24.65;73.24
68867;SHT30;56451;44.804;20.476;2022-08-20T10:27:01;24.61;73.26
68867;SHT30;56451;44.804;20.476;2022-08-20T10:29:28;24.68;74.09
68867;SHT30;56451;44.804;20.476;2022-08-20T10:31:54;24.69;73.79
68867;SHT30;56451;44.804;20.476;2022-08-20T10:34:24;24.69;73.66
68867;SHT30;56451;44.804;20.476;2022-08-20T10:36:50;24.73;73.97
68867;SHT30;56451;44.804;20.476;2022-08-20T10:39:16;24.72;74.01
68867;SHT30;56451;44.804;20.476;2022-08-20T10:41:42;24.72;74.00
68867;SHT30;56451;44.804;20.476;2022-08-20T10:44:08;24.72;73.87
68867;SHT30;56451;44.804;20.476;2022-08-20T10:46:34;24.71;73.89
68867;SHT30;56451;44.804;20.476;2022-08-20T10:49:00;24.75;73.97
68867;SHT30;56451;44.804;20.476;2022-08-20T10:51:26;24.76;74.02
68867;SHT30;56451;44.804;20.476;2022-08-20T10:53:52;24.75;73.88
68867;SHT30;56451;44.804;20.476;2022-08-20T10:56:18;24.78;73.53
68867;SHT30;56451;44.804;20.476;2022-08-20T10:58:43;24.85;73.18
68867;SHT30;56451;44.804;20.476;2022-08-20T11:01:09;24.89;72.54
68867;SHT30;56451;44.804;20.476;2022-08-20T11:03:35;24.87;72.34
68867;SHT30;56451;44.804;20.476;2022-08-20T11:06:01;24.92;72.56
68867;SHT30;56451;44.804;20.476;2022-08-20T11:08:28;24.97;72.74
68867;SHT30;56451;44.804;20.476;2022-08-20T11:10:53;25.02;72.47
68867;SHT30;56451;44.804;20.476;2022-08-20T11:13:19;25.05;71.74
68867;SHT30;56451;44.804;20.476;2022-08-20T11:15:45;25.05;71.83
68867;SHT30;56451;44.804;20.476;2022-08-20T11:18:12;24.93;71.78
68867;SHT30;56451;44.804;20.476;2022-08-20T11:20:38;24.86;72.03
68867;SHT30;56451;44.804;20.476;2022-08-20T11:23:04;24.87;72.51
68867;SHT30;56451;44.804;20.476;2022-08-20T11:25:30;24.87;72.57
68867;SHT30;56451;44.804;20.476;2022-08-20T11:27:57;24.97;72.23
68867;SHT30;56451;44.804;20.476;2022-08-20T11:30:26;25.07;70.68
68867;SHT30;56451;44.804;20.476;2022-08-20T11:32:53;25.13;70.59
68867;SHT30;56451;44.804;20.476;2022-08-20T11:35:19;25.22;71.41
68867;SHT30;56451;44.804;20.476;2022-08-20T11:37:49;25.31;71.21
68867;SHT30;56451;44.804;20.476;2022-08-20T11:40:15;25.43;71.06
68867;SHT30;56451;44.804;20.476;2022-08-20T11:42:41;25.37;70.99
68867;SHT30;56451;44.804;20.476;2022-08-20T11:45:07;25.30;71.10
68867;SHT30;56451;44.804;20.476;2022-08-20T11:47:33;25.37;71.49
68867;SHT30;56451;44.804;20.476;2022-08-20T11:50:08;25.35;71.36
68867;SHT30;56451;44.804;20.476;2022-08-20T12:09:26;25.86;69.85
68867;SHT30;56451;44.804;20.476;2022-08-20T12:11:54;25.86;69.75
68867;SHT30;56451;44.804;20.476;2022-08-20T12:21:28;25.88;69.29
68867;SHT30;56451;44.804;20.476;2022-08-20T12:30:58;25.80;69.26
68867;SHT30;56451;44.804;20.476;2022-08-20T12:33:24;25.78;68.80
68867;SHT30;56451;44.804;20.476;2022-08-20T12:35:51;25.81;69.39
68867;SHT30;56451;44.804;20.476;2022-08-20T12:38:17;25.81;68.81
68867;SHT30;56451;44.804;20.476;2022-08-20T12:40:43;25.84;69.38
68867;SHT30;56451;44.804;20.476;2022-08-20T12:43:09;25.86;68.63
68867;SHT30;56451;44.804;20.476;2022-08-20T12:45:35;25.86;68.73
68867;SHT30;56451;44.804;20.476;2022-08-20T12:48:08;25.86;68.51
68867;SHT30;56451;44.804;20.476;2022-08-20T12:50:35;25.89;68.65
68867;SHT30;56451;44.804;20.476;2022-08-20T12:53:02;25.92;68.57
68867;SHT30;56451;44.804;20.476;2022-08-20T12:55:29;25.93;68.69
68867;SHT30;56451;44.804;20.476;2022-08-20T12:57:57;25.91;68.83
68867;SHT30;56451;44.804;20.476;2022-08-20T13:03:03;25.96;68.24
68867;SHT30;56451;44.804;20.476;2022-08-20T13:05:30;25.93;68.37
68867;SHT30;56451;44.804;20.476;2022-08-20T13:07:56;25.95;68.53
68867;SHT30;56451;44.804;20.476;2022-08-20T13:10:25;25.89;68.80
68867;SHT30;56451;44.804;20.476;2022-08-20T13:12:51;25.92;68.70
68867;SHT30;56451;44.804;20.476;2022-08-20T13:15:18;25.88;68.70
68867;SHT30;56451;44.804;20.476;2022-08-20T13:17:44;25.84;68.64
68867;SHT30;56451;44.804;20.476;2022-08-20T13:20:13;25.80;67.69
68867;SHT30;56451;44.804;20.476;2022-08-20T13:22:39;25.75;68.16
68867;SHT30;56451;44.804;20.476;2022-08-20T13:25:06;25.67;68.00
68867;SHT30;56451;44.804;20.476;2022-08-20T13:27:32;25.51;68.80
68867;SHT30;56451;44.804;20.476;2022-08-20T13:29:57;25.45;68.59
68867;SHT30;56451;44.804;20.476;2022-08-20T13:32:23;25.41;69.06
68867;SHT30;56451;44.804;20.476;2022-08-20T13:34:49;25.38;69.77
68867;SHT30;56451;44.804;20.476;2022-08-20T13:37:18;25.37;70.02
68867;SHT30;56451;44.804;20.476;2022-08-20T13:39:45;25.45;70.24
68867;SHT30;56451;44.804;20.476;2022-08-20T13:42:11;25.47;70.48
68867;SHT30;56451;44.804;20.476;2022-08-20T13:44:38;25.50;71.00
68867;SHT30;56451;44.804;20.476;2022-08-20T13:49:44;25.70;70.71
68867;SHT30;56451;44.804;20.476;2022-08-20T13:52:10;25.81;70.02
68867;SHT30;56451;44.804;20.476;2022-08-20T13:54:37;25.92;67.54
68867;SHT30;56451;44.804;20.476;2022-08-20T13:57:09;26.06;67.69
68867;SHT30;56451;44.804;20.476;2022-08-20T13:59:41;26.12;67.22
68867;SHT30;56451;44.804;20.476;2022-08-20T14:02:08;26.13;67.47
68867;SHT30;56451;44.804;20.476;2022-08-20T14:04:34;26.20;67.74
68867;SHT30;56451;44.804;20.476;2022-08-20T14:07:18;26.33;67.67
68867;SHT30;56451;44.804;20.476;2022-08-20T14:09:48;26.44;66.69
68867;SHT30;56451;44.804;20.476;2022-08-20T14:12:14;26.51;65.82
68867;SHT30;56451;44.804;20.476;2022-08-20T14:14:41;26.57;66.31
68867;SHT30;56451;44.804;20.476;2022-08-20T14:19:57;26.59;65.64
68867;SHT30;56451;44.804;20.476;2022-08-20T14:22:24;26.57;64.86
68867;SHT30;56451;44.804;20.476;2022-08-20T14:24:50;26.54;65.58
68867;SHT30;56451;44.804;20.476;2022-08-20T14:27:18;26.51;65.82
68867;SHT30;56451;44.804;20.476;2022-08-20T14:29:45;26.56;65.87
68867;SHT30;56451;44.804;20.476;2022-08-20T14:32:12;26.54;65.85
68867;SHT30;56451;44.804;20.476;2022-08-20T14:34:38;26.54;65.85
68867;SHT30;56451;44.804;20.476;2022-08-20T14:37:17;26.57;65.81
68867;SHT30;56451;44.804;20.476;2022-08-20T14:39:46;26.60;65.74
68867;SHT30;56451;44.804;20.476;2022-08-20T14:42:12;26.60;63.64
68867;SHT30;56451;44.804;20.476;2022-08-20T14:44:38;26.57;63.25
68867;SHT30;56451;44.804;20.476;2022-08-20T14:49:43;26.57;64.40
68867;SHT30;56451;44.804;20.476;2022-08-20T14:52:10;26.56;63.02
68867;SHT30;56451;44.804;20.476;2022-08-20T14:54:36;26.59;64.15
68867;SHT30;56451;44.804;20.476;2022-08-20T14:57:03;26.56;64.29
68867;SHT30;56451;44.804;20.476;2022-08-20T14:59:30;26.61;64.38
68867;SHT30;56451;44.804;20.476;2022-08-20T15:01:55;26.67;64.07
68867;SHT30;56451;44.804;20.476;2022-08-20T15:04:21;26.71;63.81
68867;SHT30;56451;44.804;20.476;2022-08-20T15:06:47;26.67;64.09
68867;SHT30;56451;44.804;20.476;2022-08-20T15:09:13;26.63;64.10
68867;SHT30;56451;44.804;20.476;2022-08-20T15:11:40;26.60;64.25
68867;SHT30;56451;44.804;20.476;2022-08-20T15:14:06;26.56;64.73
68867;SHT30;56451;44.804;20.476;2022-08-20T15:16:33;26.56;65.28
68867;SHT30;56451;44.804;20.476;2022-08-20T15:18:59;26.56;65.42
68867;SHT30;56451;44.804;20.476;2022-08-20T15:21:25;26.57;65.59
68867;SHT30;56451;44.804;20.476;2022-08-20T15:23:51;26.60;65.37
68867;SHT30;56451;44.804;20.476;2022-08-20T15:26:17;26.64;64.99
68867;SHT30;56451;44.804;20.476;2022-08-20T15:28:43;26.64;65.08
68867;SHT30;56451;44.804;20.476;2022-08-20T15:31:10;26.71;65.04
68867;SHT30;56451;44.804;20.476;2022-08-20T15:33:37;26.70;64.88
68867;SHT30;56451;44.804;20.476;2022-08-20T15:36:07;26.74;64.84
68867;SHT30;56451;44.804;20.476;2022-08-20T15:38:34;26.74;64.99
68867;SHT30;56451;44.804;20.476;2022-08-20T15:41:00;26.80;64.34
68867;SHT30;56451;44.804;20.476;2022-08-20T15:43:28;26.83;64.06
68867;SHT30;56451;44.804;20.476;2022-08-20T15:45:53;26.84;63.69
68867;SHT30;56451;44.804;20.476;2022-08-20T15:48:30;26.78;64.09
68867;SHT30;56451;44.804;20.476;2022-08-20T15:51:37;26.60;64.25
68867;SHT30;56451;44.804;20.476;2022-08-20T15:54:12;26.54;64.69
68867;SHT30;56451;44.804;20.476;2022-08-20T15:57:14;26.44;65.28
68867;SHT30;56451;44.804;20.476;2022-08-20T16:13:49;26.18;66.73
68867;SHT30;56451;44.804;20.476;2022-08-20T16:16:30;26.09;67.54
68867;SHT30;56451;44.804;20.476;2022-08-20T16:18:57;26.05;68.35
68867;SHT30;56451;44.804;20.476;2022-08-20T16:21:36;26.01;69.09
68867;SHT30;56451;44.804;20.476;2022-08-20T16:24:06;25.92;69.76
68867;SHT30;56451;44.804;20.476;2022-08-20T16:27:08;25.89;69.77